createdAt,value
2023-03-06T00:04:08.174Z,76.30
2023-03-06T00:09:11.894Z,76.30
2023-03-06T00:14:16.058Z,76.30
2023-03-06T00:19:20.986Z,76.20
2023-03-06T00:24:24.465Z,77.20
2023-03-06T00:29:27.916Z,76.20
2023-03-06T00:34:32.709Z,76.10
2023-03-06T00:39:36.156Z,75.90
2023-03-06T00:44:40.082Z,76.00
2023-03-06T00:49:45.252Z,75.90
2023-03-06T00:54:48.753Z,76.00
2023-03-06T00:59:52.243Z,75.90
2023-03-06T01:04:58.156Z,76.10
2023-03-06T01:10:01.703Z,76.10
2023-03-06T01:15:06.645Z,76.10
2023-03-06T01:20:15.154Z,76.00
2023-03-06T01:25:19.188Z,75.80
2023-03-06T01:30:22.671Z,75.90
2023-03-06T01:35:27.500Z,76.00
2023-03-06T01:40:32.778Z,76.00
2023-03-06T01:46:13.388Z,76.10
2023-03-06T01:51:18.696Z,76.20
2023-03-06T01:56:22.600Z,75.90
2023-03-06T02:01:27.409Z,76.00
2023-03-06T02:06:33.305Z,75.90
2023-03-06T02:11:36.967Z,75.90
2023-03-06T02:16:42.036Z,75.70
2023-03-06T02:21:47.127Z,75.80
2023-03-06T02:26:54.268Z,75.80
2023-03-06T02:31:58.072Z,76.00
2023-03-06T02:37:03.988Z,76.00
2023-03-06T02:42:09.082Z,76.10
2023-03-06T02:47:12.491Z,76.40
2023-03-06T02:52:15.885Z,76.60
2023-03-06T02:57:20.645Z,76.70
2023-03-06T03:02:24.044Z,76.90
2023-03-06T03:07:27.658Z,77.20
2023-03-06T03:12:33.590Z,77.30
2023-03-06T03:17:37.530Z,77.40
2023-03-06T03:22:41.068Z,77.40
2023-03-06T03:27:46.187Z,77.30
2023-03-06T03:32:49.577Z,77.40
2023-03-06T03:37:54.763Z,78.10
2023-03-06T03:42:59.786Z,77.70
2023-03-06T03:48:03.153Z,77.90
2023-03-06T03:53:06.805Z,79.00
2023-03-06T03:58:11.566Z,78.10
2023-03-06T04:03:14.977Z,78.10
2023-03-06T04:08:18.386Z,78.30
2023-03-06T04:13:23.868Z,78.40
2023-03-06T04:18:28.493Z,78.30
2023-03-06T04:23:32.079Z,78.50
2023-03-06T04:28:36.810Z,78.70
2023-03-06T04:33:40.246Z,78.60
2023-03-06T04:38:43.677Z,78.60
2023-03-06T04:43:48.482Z,78.40
2023-03-06T04:48:51.855Z,78.50
2023-03-06T04:53:55.263Z,78.40
2023-03-06T04:59:00.048Z,78.10
2023-03-06T05:04:03.546Z,78.10
2023-03-06T05:09:07.259Z,78.20
2023-03-06T05:14:12.059Z,78.50
2023-03-06T05:19:15.676Z,78.70
2023-03-06T05:24:19.111Z,79.00
2023-03-06T05:29:24.333Z,79.30
2023-03-06T05:34:27.758Z,79.50
2023-03-06T05:39:31.728Z,79.50
2023-03-06T05:44:37.412Z,79.50
2023-03-06T05:49:41.735Z,79.80
2023-03-06T05:54:45.265Z,79.70
2023-03-06T05:59:51.631Z,79.60
2023-03-06T06:04:55.264Z,79.40
2023-03-06T06:09:58.660Z,79.40
2023-03-06T06:15:03.450Z,79.30
2023-03-06T06:20:07.755Z,79.20
2023-03-06T06:25:11.525Z,78.90
2023-03-06T06:30:16.919Z,78.70
2023-03-06T06:35:20.331Z,78.30
2023-03-06T06:40:24.441Z,78.00
2023-03-06T06:45:30.029Z,77.70
2023-03-06T06:50:33.454Z,77.60
2023-03-06T06:55:38.930Z,77.70
2023-03-06T07:00:43.675Z,77.50
2023-03-06T07:05:47.306Z,77.20
2023-03-06T07:10:50.743Z,77.20
2023-03-06T07:15:55.574Z,77.00
2023-03-06T07:21:01.259Z,77.00
2023-03-06T07:26:05.175Z,76.70
2023-03-06T07:31:11.964Z,76.70
2023-03-06T07:36:15.521Z,76.40
2023-03-06T07:41:21.216Z,76.20
2023-03-06T07:46:27.719Z,76.00
2023-03-06T07:51:31.239Z,75.70
2023-03-06T07:56:35.479Z,75.60
2023-03-06T08:01:40.467Z,75.60
2023-03-06T08:06:44.086Z,75.40
2023-03-06T08:11:47.519Z,75.30
2023-03-06T08:16:52.908Z,75.10
2023-03-06T08:21:57.490Z,75.00
2023-03-06T08:27:01.754Z,74.90
2023-03-06T08:32:07.422Z,74.80
2023-03-06T08:37:10.890Z,74.60
2023-03-06T08:42:14.520Z,74.30
2023-03-06T08:47:19.306Z,74.20
2023-03-06T08:52:22.676Z,74.10
2023-03-06T08:57:26.127Z,73.40
2023-03-06T09:02:31.087Z,73.30
2023-03-06T09:07:35.307Z,73.20
2023-03-06T09:12:49.746Z,72.90
2023-03-06T09:17:56.301Z,72.70
2023-03-06T09:23:00.063Z,72.50
2023-03-06T09:28:11.262Z,72.50
2023-03-06T09:33:18.055Z,72.10
2023-03-06T09:38:23.736Z,72.10
2023-03-06T09:43:30.807Z,72.00
2023-03-06T09:48:43.485Z,71.70
2023-03-06T09:54:06.826Z,71.30
2023-03-06T09:59:15.329Z,71.10
2023-03-06T10:04:33.296Z,70.40
2023-03-06T10:09:42.874Z,70.80
2023-03-06T10:14:49.323Z,69.80
2023-03-06T10:19:54.454Z,69.90
2023-03-06T10:25:04.246Z,70.10
2023-03-06T10:30:27.360Z,70.30
2023-03-06T10:35:46.896Z,70.10
2023-03-06T10:41:06.715Z,70.30
2023-03-06T10:46:13.207Z,70.00
2023-03-06T10:51:20.109Z,69.70
2023-03-06T10:56:32.206Z,68.60
2023-03-06T11:01:36.190Z,68.50
2023-03-06T11:06:41.176Z,67.80
2023-03-06T11:11:44.920Z,67.50
2023-03-06T11:16:53.251Z,66.30
2023-03-06T11:22:03.549Z,66.20
2023-03-06T11:27:23.724Z,65.70
2023-03-06T11:32:30.511Z,64.90
2023-03-06T11:37:44.498Z,63.90
2023-03-06T11:42:53.944Z,63.60
2023-03-06T11:48:04.684Z,62.20
2023-03-06T11:53:13.051Z,62.20
2023-03-06T11:58:39.139Z,62.50
2023-03-06T12:04:19.988Z,62.70
2023-03-06T12:09:39.261Z,61.60
2023-03-06T12:15:12.082Z,61.40
2023-03-06T12:20:25.623Z,60.10
2023-03-06T12:25:36.399Z,60.00
2023-03-06T12:31:03.503Z,60.30
2023-03-06T12:36:28.087Z,60.50
2023-03-06T12:41:44.382Z,60.10
2023-03-06T12:46:52.824Z,59.50
2023-03-06T12:51:58.018Z,59.20
2023-03-06T12:57:03.403Z,58.50
2023-03-06T13:02:42.750Z,57.40
2023-03-06T13:08:01.187Z,58.30
2023-03-06T13:13:31.077Z,58.80
2023-03-06T13:19:05.242Z,58.70
2023-03-06T13:24:17.385Z,59.10
2023-03-06T13:29:51.367Z,58.10
2023-03-06T13:34:54.780Z,58.30
2023-03-06T13:40:30.877Z,57.90
2023-03-06T13:45:40.336Z,57.20
2023-03-06T13:50:45.328Z,57.40
2023-03-06T13:56:02.299Z,57.70
2023-03-06T14:01:21.858Z,56.60
2023-03-06T14:07:05.652Z,61.80
2023-03-06T14:12:18.821Z,64.10
2023-03-06T14:17:29.656Z,66.70
2023-03-06T14:22:33.370Z,67.60
2023-03-06T14:27:46.192Z,67.80
2023-03-06T14:32:53.474Z,67.60
2023-03-06T14:38:01.639Z,67.20
2023-03-06T14:43:19.208Z,67.00
2023-03-06T14:48:25.990Z,66.60
2023-03-06T14:53:31.270Z,66.30
2023-03-06T14:58:40.277Z,65.90
2023-03-06T15:03:48.784Z,65.70
2023-03-06T15:08:59.139Z,65.40
2023-03-06T15:14:05.368Z,65.20
2023-03-06T15:19:20.265Z,64.80
2023-03-06T15:24:35.928Z,64.50
2023-03-06T15:29:40.330Z,64.40
2023-03-06T15:34:45.263Z,64.10
2023-03-06T15:40:06.616Z,64.00
2023-03-06T15:45:16.285Z,63.80
2023-03-06T15:50:24.461Z,63.80
2023-03-06T15:55:27.956Z,63.60
2023-03-06T16:00:35.185Z,63.70
2023-03-06T16:05:40.168Z,63.90
2023-03-06T16:10:46.394Z,63.90
2023-03-06T16:15:51.276Z,63.90
2023-03-06T16:20:57.044Z,64.00
2023-03-06T16:26:00.693Z,63.80
2023-03-06T16:31:04.346Z,63.80
2023-03-06T16:36:14.290Z,63.90
2023-03-06T16:41:19.190Z,64.00
2023-03-06T16:46:24.968Z,64.10
2023-03-06T16:51:30.316Z,64.40
2023-03-06T16:56:33.737Z,64.60
2023-03-06T17:01:37.680Z,65.80
2023-03-06T17:06:43.193Z,64.90
2023-03-06T17:11:46.882Z,65.10
2023-03-06T17:16:50.321Z,65.10
2023-03-06T17:21:55.661Z,65.30
2023-03-06T17:26:59.639Z,65.40
2023-03-06T17:32:03.401Z,65.10
2023-03-06T17:37:08.658Z,66.20
2023-03-06T17:42:12.255Z,65.30
2023-03-06T17:47:15.676Z,65.40
2023-03-06T17:52:20.637Z,65.30
2023-03-06T17:57:24.072Z,65.30
2023-03-06T18:02:27.505Z,65.20
2023-03-06T18:07:32.315Z,65.30
2023-03-06T18:12:35.739Z,65.20
2023-03-06T18:17:39.590Z,65.40
2023-03-06T18:22:44.382Z,65.70
2023-03-06T18:27:47.812Z,65.60
2023-03-06T18:32:51.232Z,66.00
2023-03-06T18:37:56.661Z,66.10
2023-03-06T18:43:00.314Z,66.30
2023-03-06T18:48:05.015Z,66.50
2023-03-06T18:53:09.864Z,66.80
2023-03-06T18:58:13.277Z,66.80
2023-03-06T19:03:16.983Z,67.10
2023-03-06T19:08:21.677Z,67.20
2023-03-06T19:13:25.059Z,67.40
2023-03-06T19:18:29.474Z,67.40
2023-03-06T19:23:34.220Z,67.40
2023-03-06T19:28:38.977Z,67.40
2023-03-06T19:33:43.716Z,67.40
2023-03-06T19:38:52.508Z,67.50
2023-03-06T19:43:58.367Z,67.40
2023-03-06T19:49:03.202Z,67.30
2023-03-06T19:54:07.977Z,67.20
2023-03-06T19:59:11.724Z,67.20
2023-03-06T20:04:16.475Z,67.30
2023-03-06T20:09:21.229Z,67.70
2023-03-06T20:14:24.611Z,68.00
2023-03-06T20:19:28.145Z,68.70
2023-03-06T20:24:32.924Z,69.90
2023-03-06T20:29:36.538Z,70.60
2023-03-06T20:34:41.137Z,71.50
2023-03-06T20:39:46.729Z,72.00
2023-03-06T20:44:50.149Z,71.80
2023-03-06T20:49:53.548Z,72.00
2023-03-06T20:54:58.949Z,72.00
2023-03-06T21:00:02.331Z,71.80
2023-03-06T21:05:06.635Z,71.50
2023-03-06T21:10:14.577Z,71.50
2023-03-06T21:15:19.549Z,71.50
2023-03-06T21:20:23.264Z,71.60
2023-03-06T21:25:28.682Z,71.90
2023-03-06T21:30:32.110Z,72.10
2023-03-06T21:35:38.637Z,72.20
2023-03-06T21:40:45.442Z,72.50
2023-03-06T21:45:52.686Z,72.50
2023-03-06T21:51:05.208Z,72.40
2023-03-06T21:56:11.386Z,72.40
2023-03-06T22:01:18.312Z,72.20
2023-03-06T22:06:23.567Z,72.10
2023-03-06T22:11:34.233Z,73.20
2023-03-06T22:16:37.758Z,72.40
2023-03-06T22:21:41.184Z,72.40
2023-03-06T22:26:46.016Z,72.20
2023-03-06T22:31:49.726Z,72.40
2023-03-06T22:36:53.506Z,72.50
2023-03-06T22:41:58.801Z,72.70
2023-03-06T22:47:02.623Z,72.60
2023-03-06T22:52:06.361Z,72.80
2023-03-06T22:57:11.131Z,72.90
2023-03-06T23:02:14.478Z,72.80
2023-03-06T23:07:18.164Z,72.80
2023-03-06T23:12:22.959Z,73.00
2023-03-06T23:17:26.420Z,73.00
2023-03-06T23:22:29.824Z,72.90
2023-03-06T23:27:36.648Z,72.90
2023-03-06T23:32:40.185Z,72.90
2023-03-06T23:37:43.687Z,72.90
2023-03-06T23:42:48.565Z,72.90
2023-03-06T23:47:51.939Z,73.10
2023-03-06T23:52:56.182Z,73.10
2023-03-06T23:58:01.879Z,73.10
